KMER/MER METAR and TAF weather

Enter ICAO airport designator
Station Type Date Time Source
KMER METAR 2018/12/15 21:45 UTC NOAA

KMER 152145Z 00000KT 6SM HZ SKC 17/09 A3007


Station Type Date Time Source
KMER Decoded METAR 2018/12/15 21:45 UTC NOAA

Merced / Castle Air Force Base, CA, United States (KMER) 37-22N 120-34W 60M
Dec 15, 2018 - 04:45 PM EST / 2018.12.15 2145 UTC
Wind: Calm:0
Visibility: 6 mile(s):0
Sky conditions: clear
Weather: haze
Temperature: 62 F (17 C)
Dew Point: 48 F (9 C)
Relative Humidity: 59%
Pressure (altimeter): 30.07 in. Hg (1018 hPa)
ob: KMER 152145Z 00000KT 6SM HZ SKC 17/09 A3007
cycle: 22

Station Type Date Time Source
KMER TAF 2018/12/15 18:36 UTC NOAA

TAF KMER 151720Z 1518/1618 VRB04KT P6SM SCT250


Example: see airport list